Time Latitude Longitude Accuracy (66% radius in meters) Altitude (meters) Speed (km/hour) Bearing (degrees) Battery (%) GPS flag
06:18:06 57.199150 60.121632 0 0 0 0 1 delete
06:18:05 57.199185 60.121657 0 0 0 0 1 delete
06:18:04 57.199222 60.121673 0 0 0 0 1 delete
06:18:03 57.199262 60.121680 0 0 0 0 1 delete
06:18:02 57.199308 60.121690 0 0 0 0 1 delete
06:18:01 57.199352 60.121698 0 0 0 0 1 delete
06:18:00 57.199398 60.121708 0 0 0 0 1 delete
06:17:59 57.199448 60.121722 0 0 0 0 1 delete
06:17:58 57.199505 60.121722 0 0 0 0 1 delete
06:17:57 57.199568 60.121722 0 0 0 0 1 delete
06:17:56 57.199642 60.121720 0 0 0 0 1 delete
06:17:55 57.199717 60.121710 0 0 0 0 1 delete
06:17:54 57.199797 60.121697 0 0 0 0 1 delete
06:17:53 57.199888 60.121678 0 0 0 0 1 delete
06:17:52 57.199993 60.121665 0 0 0 0 1 delete
06:17:51 57.200102 60.121638 0 0 0 0 1 delete
06:17:50 57.200222 60.121605 0 0 0 0 1 delete
06:17:49 57.200347 60.121560 0 0 0 0 1 delete
06:17:48 57.200473 60.121505 0 0 0 0 1 delete
06:17:47 57.200592 60.121460 0 0 0 0 1 delete
06:17:46 57.200707 60.121423 0 0 0 0 1 delete
06:17:45 57.200817 60.121397 0 0 0 0 1 delete
06:17:44 57.200923 60.121380 0 0 0 0 1 delete
06:17:43 57.201030 60.121383 0 0 0 0 1 delete
06:17:42 57.201142 60.121390 0 0 0 0 1 delete
06:17:41 57.201255 60.121365 0 0 0 0 1 delete
06:17:40 57.201363 60.121322 0 0 0 0 1 delete
06:17:39 57.201443 60.121258 0 0 0 0 1 delete
06:17:38 57.201510 60.121190 0 0 0 0 1 delete
06:17:37 57.201567 60.121123 0 0 0 0 1 delete
06:17:36 57.201613 60.121063 0 0 0 0 1 delete
06:17:35 57.201655 60.121013 0 0 0 0 1 delete
06:17:34 57.201697 60.120967 0 0 0 0 1 delete
06:17:33 57.201737 60.120920 0 0 0 0 1 delete
06:17:32 57.201737 60.120920 0 0 0 0 1 delete